KIPJ

Lincolnton-Lincoln County Regional Airport

Lincolnton, North Carolina, USA
METAR KIPJ 231005Z AUTO 00000KT 3/4SM BR BKN002 BKN037 12/12 A3040 RMK AO2 T01160116
Observed Flight Rules
Feb-23 @ 10:05 UTC (25 minutes ago) Instrument Flight Rules
Wind Visibility Clouds Conditions
Calm 3/4 miles
  • Broken at 200' AGL
  • Broken at 3,700' AGL
  • Mist
Temperatures Readings
Current 12°C / 54°F
Dewpoint 12°C / 54°F
Humidity 100%
Altimeter 30.4" Hg
Pressure 1029 hPa
Elevation 267
METAR KIPJ 231005Z AUTO 00000KT 3/4SM BR BKN002 BKN037 12/12 A3040 RMK AO2 T01160116
Observed Flight Rules
Feb-23 @ 10:05 UTC
(25 minutes ago)
LIFR
Wind Visibility
Calm 3/4 miles
Clouds
  • Broken at 200' AGL
  • Broken at 3,700' AGL
Conditions
  • Mist
Temperature Dewpoint
12°C / 54°F 12°C / 54°F
Humidity Altimeter Pressure
100% 30.4" Hg 1029 hPa